Time;durP1;ratioP1;P1;durP2;ratioP2;P2;SDS_P1;SDS_P2;PMS_P1;PMS_P2;Temp;Humidity;BMP_temperature;BMP_pressure;BME280_temperature;BME280_humidity;BME280_pressure;Samples;Min_cycle;Max_cycle;Signal;HPM_P1;HPM_P2
2021/08/14 00:00:27;;;;;;;30.83;26.83;;;;;;;17.38;100.00;99541.41;2096481;28;20456;-74
2021/08/14 00:01:28;;;;;;;28.93;26.23;;;;;;;17.33;100.00;99530.78;2096309;28;20241;-74
2021/08/14 00:02:29;;;;;;;29.23;26.33;;;;;;;17.36;100.00;99538.22;2096276;28;20456;-75
2021/08/14 00:03:31;;;;;;;30.43;27.33;;;;;;;17.36;100.00;99535.50;2096411;28;20226;-74
2021/08/14 00:04:32;;;;;;;29.53;26.47;;;;;;;17.39;100.00;99536.78;2097080;28;20448;-75
2021/08/14 00:05:33;;;;;;;28.60;25.60;;;;;;;17.44;100.00;99537.34;2096747;28;20554;-72
2021/08/14 00:06:34;;;;;;;29.57;26.40;;;;;;;17.43;100.00;99535.78;2097068;28;20244;-73
2021/08/14 00:07:35;;;;;;;30.70;27.57;;;;;;;17.37;100.00;99534.38;2096979;28;20466;-72
2021/08/14 00:08:36;;;;;;;27.97;25.33;;;;;;;17.44;100.00;99531.97;2096162;28;20308;-72
2021/08/14 00:09:38;;;;;;;29.33;26.47;;;;;;;17.41;100.00;99529.94;2095972;28;20448;-74
2021/08/14 00:10:38;;;;;;;28.87;26.03;;;;;;;17.42;100.00;99538.81;2097143;28;20232;-72
2021/08/14 00:11:40;;;;;;;30.83;27.70;;;;;;;17.40;100.00;99532.97;2096957;28;20455;-73
2021/08/14 00:12:40;;;;;;;29.60;26.73;;;;;;;17.33;100.00;99532.69;2096164;28;20244;-72
2021/08/14 00:13:42;;;;;;;30.07;26.90;;;;;;;17.27;100.00;99540.19;2096388;28;20495;-72
2021/08/14 00:14:42;;;;;;;28.37;25.77;;;;;;;17.25;100.00;99528.94;2096979;28;20696;-72
2021/08/14 00:15:46;;;;;;;29.63;26.50;;;;;;;17.38;100.00;99537.91;2096971;28;20448;-72
2021/08/14 00:16:46;;;;;;;29.67;26.50;;;;;;;17.44;100.00;99531.97;2096902;28;20222;-72
2021/08/14 00:17:48;;;;;;;30.47;25.87;;;;;;;17.42;100.00;99526.13;2096176;28;20452;-72
2021/08/14 00:18:48;;;;;;;30.60;27.40;;;;;;;17.45;100.00;99530.06;2096201;28;20242;-72
2021/08/14 00:19:50;;;;;;;29.10;26.30;;;;;;;17.42;100.00;99528.81;2096058;28;20453;-73
2021/08/14 00:20:50;;;;;;;28.73;25.63;;;;;;;17.42;100.00;99534.22;2096179;28;20301;-72
2021/08/14 00:21:52;;;;;;;28.33;25.53;;;;;;;17.48;100.00;99530.19;2097018;28;20460;-73
2021/08/14 00:22:53;;;;;;;28.27;25.50;;;;;;;17.52;100.00;99528.41;2095714;28;20237;-73
2021/08/14 00:23:54;;;;;;;33.23;27.00;;;;;;;17.54;100.00;99525.38;2096269;28;20456;-72
2021/08/14 00:24:56;;;;;;;29.03;26.23;;;;;;;17.48;100.00;99521.31;2097008;28;20247;-72
2021/08/14 00:25:57;;;;;;;29.33;25.93;;;;;;;17.52;100.00;99523.00;2096426;28;20542;-72
2021/08/14 00:26:59;;;;;;;28.03;25.33;;;;;;;17.43;100.00;99514.19;2096221;28;20451;-73
2021/08/14 00:27:59;;;;;;;29.67;26.10;;;;;;;17.41;100.00;99527.22;2095907;28;20461;-72
2021/08/14 00:29:01;;;;;;;30.03;26.40;;;;;;;17.47;100.00;99519.75;2080690;28;20438;-72
2021/08/14 00:30:02;;;;;;;29.13;26.33;;;;;;;17.44;100.00;99520.38;2095500;28;20256;-73
2021/08/14 00:31:05;;;;;;;27.77;25.17;;;;;;;17.40;100.00;99520.25;2096958;28;20445;-72
2021/08/14 00:32:06;;;;;;;28.53;25.57;;;;;;;17.33;100.00;99520.00;2096354;28;20539;-72
2021/08/14 00:33:07;;;;;;;28.80;26.13;;;;;;;17.33;100.00;99525.38;2095780;28;20464;-74
2021/08/14 00:34:08;;;;;;;29.53;26.53;;;;;;;17.35;100.00;99515.06;2096767;28;20631;-72
2021/08/14 00:35:11;;;;;;;30.27;27.23;;;;;;;17.40;100.00;99514.09;2096097;28;20453;-73
2021/08/14 00:36:12;;;;;;;36.50;28.37;;;;;;;17.35;100.00;99517.75;2088193;28;20254;-72
2021/08/14 00:37:13;;;;;;;32.07;28.43;;;;;;;17.28;100.00;99508.59;2087787;28;20453;-72
2021/08/14 00:38:14;;;;;;;32.47;29.03;;;;;;;17.24;100.00;99516.56;2096101;28;20305;-73
2021/08/14 00:39:16;;;;;;;32.67;28.67;;;;;;;17.19;100.00;99508.66;2096724;28;20452;-72
2021/08/14 00:40:17;;;;;;;31.97;27.37;;;;;;;17.14;100.00;99508.88;2097038;28;20238;-73
2021/08/14 00:41:18;;;;;;;32.37;28.97;;;;;;;17.10;100.00;99500.66;2096955;28;20474;-72
2021/08/14 00:42:20;;;;;;;30.30;27.20;;;;;;;17.07;100.00;99511.31;2096956;28;20444;-72
2021/08/14 00:43:21;;;;;;;30.53;27.43;;;;;;;17.07;100.00;99516.69;2096866;28;20300;-72
2021/08/14 00:44:22;;;;;;;29.87;26.67;;;;;;;17.24;100.00;99511.19;2096547;28;20502;-73
2021/08/14 00:45:23;;;;;;;34.63;28.40;;;;;;;17.25;100.00;99507.38;2096806;28;20523;-73
2021/08/14 00:46:26;;;;;;;31.57;28.20;;;;;;;17.18;100.00;99512.50;2095937;28;21052;-72
2021/08/14 00:47:27;;;;;;;30.27;26.90;;;;;;;17.13;100.00;99502.72;2096147;28;20246;-73
2021/08/14 00:48:29;;;;;;;35.30;28.70;;;;;;;17.09;100.00;99512.56;2096750;28;20927;-72
2021/08/14 00:49:30;;;;;;;29.30;26.17;;;;;;;17.03;100.00;99507.66;2096866;28;20472;-73
2021/08/14 00:50:31;;;;;;;30.20;27.30;;;;;;;17.00;100.00;99511.81;2096876;28;20444;-72
2021/08/14 00:51:32;;;;;;;30.83;27.73;;;;;;;16.95;100.00;99507.44;2096321;28;20237;-72
2021/08/14 00:52:33;;;;;;;31.77;28.43;;;;;;;16.97;100.00;99506.31;2096123;28;20444;-72
2021/08/14 00:53:35;;;;;;;30.00;26.90;;;;;;;17.02;100.00;99506.88;2096943;28;20301;-72
2021/08/14 00:54:38;;;;;;;29.83;26.73;;;;;;;17.05;100.00;99505.47;2095985;28;20877;-72
2021/08/14 00:55:41;;;;;;;29.70;26.70;;;;;;;17.17;100.00;99505.53;2095724;28;20457;-73
2021/08/14 00:56:44;;;;;;;28.83;25.87;;;;;;;17.20;100.00;99510.25;2095897;28;20947;-73
2021/08/14 00:57:45;;;;;;;30.23;26.43;;;;;;;17.23;100.00;99505.00;2095934;28;20464;-72
2021/08/14 00:58:46;;;;;;;28.90;25.80;;;;;;;17.39;100.00;99502.50;2096017;28;20809;-72
2021/08/14 00:59:48;;;;;;;28.50;25.70;;;;;;;17.33;100.00;99501.13;2096119;28;20456;-73
2021/08/14 01:00:48;;;;;;;30.03;26.93;;;;;;;17.32;100.00;99494.16;2096807;28;20623;-73
2021/08/14 01:01:51;;;;;;;29.00;26.20;;;;;;;17.45;100.00;99503.84;2095867;28;20461;-73
2021/08/14 01:02:52;;;;;;;33.70;26.37;;;;;;;17.41;100.00;99492.16;2095650;28;20253;-73
2021/08/14 01:03:54;;;;;;;30.20;26.83;;;;;;;17.41;100.00;99492.16;2096002;28;20474;-73
2021/08/14 01:04:55;;;;;;;29.97;26.93;;;;;;;17.34;100.00;99491.91;2096724;28;20246;-72
2021/08/14 01:05:57;;;;;;;29.87;26.87;;;;;;;17.33;100.00;99486.84;2095793;28;20501;-72
2021/08/14 01:06:59;;;;;;;29.23;26.33;;;;;;;17.38;100.00;99495.53;2096102;28;20353;-72
2021/08/14 01:08:01;;;;;;;29.97;26.80;;;;;;;17.38;100.00;99492.06;2096723;28;20922;-72
2021/08/14 01:09:01;;;;;;;29.10;26.20;;;;;;;17.36;100.00;99486.97;2096752;28;20480;-73
2021/08/14 01:10:04;;;;;;;28.83;25.73;;;;;;;17.38;100.00;99483.97;2096638;28;20452;-72
2021/08/14 01:11:04;;;;;;;29.10;26.30;;;;;;;17.35;100.00;99485.38;2095931;28;20249;-73
2021/08/14 01:12:07;;;;;;;28.97;26.10;;;;;;;17.33;100.00;99484.94;2095892;28;20464;-73
2021/08/14 01:13:07;;;;;;;29.60;26.70;;;;;;;17.31;100.00;99489.88;2095731;28;20230;-72
2021/08/14 01:14:09;;;;;;;29.67;25.93;;;;;;;17.27;100.00;99486.25;2096793;28;20436;-73
2021/08/14 01:15:10;;;;;;;30.00;25.83;;;;;;;17.17;100.00;99481.25;2096699;28;20226;-72
2021/08/14 01:16:12;;;;;;;29.90;26.90;;;;;;;17.11;100.00;99482.56;2095854;28;20455;-72
2021/08/14 01:17:14;;;;;;;29.63;26.60;;;;;;;17.05;100.00;99484.69;2087912;28;20971;-72
2021/08/14 01:18:16;;;;;;;29.87;26.90;;;;;;;17.03;100.00;99480.72;2097170;28;20509;-72
2021/08/14 01:19:18;;;;;;;31.10;27.77;;;;;;;17.03;100.00;99475.31;2097784;28;20463;-72
2021/08/14 01:20:20;;;;;;;30.23;26.93;;;;;;;16.98;100.00;99481.72;2097586;28;20460;-72
2021/08/14 01:21:22;;;;;;;30.67;27.30;;;;;;;16.95;100.00;99472.38;2098339;28;20917;-72
2021/08/14 01:22:24;;;;;;;30.97;27.73;;;;;;;17.00;100.00;99473.28;2097979;28;20463;-73
2021/08/14 01:23:25;;;;;;;30.00;27.20;;;;;;;17.06;100.00;99474.69;2098166;28;20502;-72
2021/08/14 01:24:26;;;;;;;30.10;27.10;;;;;;;17.01;100.00;99470.25;2098202;28;20455;-72
2021/08/14 01:25:27;;;;;;;34.13;27.70;;;;;;;16.97;100.00;99471.25;2098137;28;20238;-72
2021/08/14 01:26:31;;;;;;;30.73;27.43;;;;;;;16.97;100.00;99471.25;2098231;28;20449;-72
2021/08/14 01:27:33;;;;;;;31.20;27.90;;;;;;;16.98;100.00;99473.63;2097481;28;20719;-73
2021/08/14 01:28:36;;;;;;;29.03;26.30;;;;;;;16.94;100.00;99473.50;2097407;28;20456;-72
2021/08/14 01:29:37;;;;;;;30.30;27.10;;;;;;;16.92;100.00;99478.41;2097825;28;20492;-74
2021/08/14 01:30:39;;;;;;;31.20;27.93;;;;;;;16.89;100.00;99480.97;2097241;28;20451;-73
2021/08/14 01:31:40;;;;;;;31.60;28.20;;;;;;;16.88;100.00;99482.88;2097348;28;20503;-72
2021/08/14 01:32:42;;;;;;;30.13;27.07;;;;;;;16.89;100.00;99484.47;2098153;28;20456;-72
2021/08/14 01:33:43;;;;;;;30.53;27.23;;;;;;;16.93;100.00;99484.59;2098217;28;20934;-72
2021/08/14 01:34:45;;;;;;;31.23;27.23;;;;;;;16.94;100.00;99476.19;2098427;28;20433;-72
2021/08/14 01:35:46;;;;;;;30.67;27.47;;;;;;;16.98;100.00;99480.94;2097367;28;20543;-72
2021/08/14 01:36:48;;;;;;;33.03;27.77;;;;;;;17.01;100.00;99480.25;2097560;28;20468;-72
2021/08/14 01:37:49;;;;;;;31.40;27.87;;;;;;;17.07;100.00;99478.97;2098304;28;20287;-73
2021/08/14 01:38:52;;;;;;;30.83;27.53;;;;;;;17.11;100.00;99485.25;2097915;28;20452;-72
2021/08/14 01:39:54;;;;;;;30.80;27.87;;;;;;;17.11;100.00;99483.34;2096801;28;20257;-72
2021/08/14 01:40:55;;;;;;;31.10;27.70;;;;;;;17.13;100.00;99485.75;2097345;28;20460;-73
2021/08/14 01:41:59;;;;;;;30.53;27.53;;;;;;;17.11;100.00;99479.88;2098145;28;20447;-72
2021/08/14 01:43:01;;;;;;;32.17;27.77;;;;;;;17.11;100.00;99490.66;2097617;28;20539;-73
2021/08/14 01:44:05;;;;;;;34.07;27.23;;;;;;;17.10;100.00;99489.06;2097362;28;20463;-72
2021/08/14 01:45:07;;;;;;;32.33;27.70;;;;;;;17.07;100.00;99485.13;2098128;28;20472;-72
2021/08/14 01:46:09;;;;;;;31.27;27.80;;;;;;;17.06;100.00;99482.78;2097699;28;20459;-73
2021/08/14 01:47:11;;;;;;;32.00;28.73;;;;;;;17.06;100.00;99488.94;2097985;28;20462;-72
2021/08/14 01:48:11;;;;;;;33.93;27.80;;;;;;;17.03;100.00;99484.22;2098092;28;20593;-73
2021/08/14 01:49:13;;;;;;;35.27;28.57;;;;;;;17.02;100.00;99493.41;2098135;28;20930;-72
2021/08/14 01:50:13;;;;;;;31.93;27.03;;;;;;;17.01;100.00;99489.13;2097652;28;20309;-73
2021/08/14 01:51:15;;;;;;;42.63;29.90;;;;;;;17.03;100.00;99494.19;2097344;28;20453;-72
2021/08/14 01:52:17;;;;;;;31.70;28.30;;;;;;;17.01;100.00;99486.44;2097255;28;20245;-72
2021/08/14 01:53:19;;;;;;;33.10;28.73;;;;;;;17.01;100.00;99486.44;2097397;28;20531;-73
2021/08/14 01:54:20;;;;;;;30.20;27.23;;;;;;;17.03;100.00;99488.81;2098049;28;20527;-72
2021/08/14 01:55:22;;;;;;;33.07;27.90;;;;;;;17.02;100.00;99489.91;2098149;28;20436;-73
2021/08/14 01:56:24;;;;;;;35.93;29.00;;;;;;;17.02;100.00;99487.22;2097744;28;20535;-73
2021/08/14 01:57:26;;;;;;;32.63;28.53;;;;;;;17.01;100.00;99486.44;2097041;28;20456;-72
2021/08/14 01:58:28;;;;;;;32.17;28.27;;;;;;;16.99;100.00;99487.91;2097401;28;20517;-72
2021/08/14 01:59:30;;;;;;;29.93;26.93;;;;;;;17.03;100.00;99483.41;2098110;28;20447;-73
2021/08/14 02:00:31;;;;;;;31.53;28.43;;;;;;;17.04;100.00;99483.09;2097946;28;20448;-72
2021/08/14 02:01:32;;;;;;;30.83;27.67;;;;;;;17.00;100.00;99484.06;2097474;28;20464;-72
2021/08/14 02:02:33;;;;;;;29.60;26.53;;;;;;;17.09;100.00;99482.91;2081073;28;20315;-72
2021/08/14 02:03:35;;;;;;;30.57;27.40;;;;;;;17.12;100.00;99476.06;2094660;28;20490;-73
2021/08/14 02:04:36;;;;;;;30.30;27.03;;;;;;;17.19;100.00;99477.09;2097271;28;20322;-72
2021/08/14 02:05:37;;;;;;;29.83;26.83;;;;;;;17.30;100.00;99466.72;2097477;28;20483;-72
2021/08/14 02:06:38;;;;;;;31.00;26.50;;;;;;;17.32;100.00;99467.19;2096925;28;20279;-73
2021/08/14 02:07:40;;;;;;;30.27;26.97;;;;;;;17.24;100.00;99466.13;2096593;28;20518;-72
2021/08/14 02:08:40;;;;;;;31.53;26.23;;;;;;;17.20;100.00;99454.44;2097154;28;20304;-73
2021/08/14 02:09:42;;;;;;;28.60;25.83;;;;;;;17.37;100.00;99456.16;2097953;28;20926;-73
2021/08/14 02:10:42;;;;;;;29.13;26.13;;;;;;;17.28;100.00;99458.16;2097376;28;20252;-72
2021/08/14 02:11:44;;;;;;;28.67;25.77;;;;;;;17.20;100.00;99456.31;2097268;28;20445;-73
2021/08/14 02:12:45;;;;;;;29.57;26.00;;;;;;;17.13;100.00;99456.09;2097883;28;20241;-72
2021/08/14 02:13:49;;;;;;;27.40;24.87;;;;;;;17.28;100.00;99458.16;2098044;28;20456;-72
2021/08/14 02:14:50;;;;;;;30.07;25.83;;;;;;;17.22;100.00;99457.59;2097962;28;20739;-73
2021/08/14 02:15:52;;;;;;;29.17;26.03;;;;;;;17.14;100.00;99455.75;2097063;28;20826;-72
2021/08/14 02:16:53;;;;;;;29.80;26.90;;;;;;;17.16;100.00;99453.50;2096790;28;20230;-73
2021/08/14 02:17:54;;;;;;;32.93;27.53;;;;;;;17.13;100.00;99454.16;2097848;28;20455;-72
2021/08/14 02:18:55;;;;;;;31.07;27.67;;;;;;;17.06;100.00;99458.50;2097273;28;20306;-72
2021/08/14 02:19:57;;;;;;;30.27;27.13;;;;;;;17.02;100.00;99457.56;2097181;28;20981;-72
2021/08/14 02:20:57;;;;;;;29.07;25.83;;;;;;;17.01;100.00;99447.91;2097881;28;20305;-72
2021/08/14 02:21:59;;;;;;;29.10;26.20;;;;;;;17.02;100.00;99452.19;2097800;28;20441;-73
2021/08/14 02:22:59;;;;;;;34.23;27.90;;;;;;;17.04;100.00;99452.66;2097735;28;20351;-73
2021/08/14 02:24:01;;;;;;;34.03;28.57;;;;;;;16.99;100.00;99450.16;2098018;28;20448;-72
2021/08/14 02:25:03;;;;;;;29.70;26.77;;;;;;;17.01;100.00;99450.59;2097854;28;20572;-72
2021/08/14 02:26:05;;;;;;;30.27;27.47;;;;;;;17.12;100.00;99449.13;2097073;28;20452;-72
2021/08/14 02:27:06;;;;;;;32.20;28.87;;;;;;;17.08;100.00;99450.88;2088639;28;20868;-73
2021/08/14 02:28:07;;;;;;;29.17;26.27;;;;;;;17.12;100.00;99446.41;2096365;28;20543;-73
2021/08/14 02:29:10;;;;;;;30.90;27.80;;;;;;;17.14;100.00;99444.16;2097562;28;20452;-73
2021/08/14 02:30:11;;;;;;;32.77;29.03;;;;;;;17.18;100.00;99447.78;2097692;28;20310;-72
2021/08/14 02:31:13;;;;;;;30.93;27.43;;;;;;;17.16;100.00;99450.81;2097755;28;20452;-72
2021/08/14 02:32:14;;;;;;;31.73;28.40;;;;;;;17.10;100.00;99443.25;2097766;28;20497;-72
2021/08/14 02:33:15;;;;;;;31.57;28.47;;;;;;;17.05;100.00;99440.75;2097824;28;20490;-72
2021/08/14 02:34:16;;;;;;;28.63;25.67;;;;;;;17.06;100.00;99445.03;2096975;28;20677;-72
2021/08/14 02:35:17;;;;;;;28.70;25.80;;;;;;;17.07;100.00;99446.59;2097189;28;20804;-72
2021/08/14 02:36:19;;;;;;;29.40;26.30;;;;;;;17.05;100.00;99440.75;2097656;28;20700;-72
2021/08/14 02:37:20;;;;;;;30.00;27.17;;;;;;;17.01;100.00;99437.13;2097707;28;20453;-77
2021/08/14 02:38:21;;;;;;;29.53;26.57;;;;;;;17.02;100.00;99434.09;2097275;28;20524;-78
2021/08/14 02:39:22;;;;;;;29.83;26.73;;;;;;;17.17;100.00;99436.19;2096469;28;20951;-77
2021/08/14 02:40:23;;;;;;;28.63;25.60;;;;;;;17.30;100.00;99439.75;2097749;28;20218;-77
2021/08/14 02:41:25;;;;;;;29.07;26.07;;;;;;;17.31;100.00;99435.94;2097763;28;20461;-77
2021/08/14 02:42:25;;;;;;;29.87;26.73;;;;;;;17.22;100.00;99436.00;2097533;28;20322;-77
2021/08/14 02:43:27;;;;;;;30.67;27.37;;;;;;;17.18;100.00;99443.16;2097747;28;20459;-76
2021/08/14 02:44:29;;;;;;;30.10;26.97;;;;;;;17.12;100.00;99446.41;2097674;28;20242;-77
2021/08/14 02:45:31;;;;;;;28.00;25.40;;;;;;;17.07;100.00;99444.69;2097778;28;20456;-77
2021/08/14 02:46:32;;;;;;;30.43;26.77;;;;;;;17.01;100.00;99442.53;2097566;28;20813;-77
2021/08/14 02:47:33;;;;;;;29.23;26.33;;;;;;;17.01;100.00;99447.91;2096733;28;20475;-78
2021/08/14 02:48:34;;;;;;;30.40;27.40;;;;;;;16.99;100.00;99445.53;2081101;28;20277;-77
2021/08/14 02:49:36;;;;;;;31.30;27.87;;;;;;;16.98;100.00;99443.97;2096681;28;20478;-78
2021/08/14 02:50:37;;;;;;;32.30;28.07;;;;;;;17.02;100.00;99449.47;2097598;28;20300;-77
2021/08/14 02:51:38;;;;;;;32.00;28.17;;;;;;;17.04;100.00;99450.75;2097359;28;20967;-76
2021/08/14 02:52:39;;;;;;;31.23;27.97;;;;;;;17.10;100.00;99456.72;2097616;28;20908;-78
2021/08/14 02:53:40;;;;;;;32.47;28.10;;;;;;;17.11;100.00;99452.91;2096749;28;20457;-77
2021/08/14 02:54:42;;;;;;;30.90;27.73;;;;;;;17.09;100.00;99450.53;2096822;28;20789;-77
2021/08/14 02:55:43;;;;;;;29.13;26.43;;;;;;;17.12;100.00;99449.13;2097514;28;20506;-76
2021/08/14 02:56:44;;;;;;;30.63;27.47;;;;;;;17.13;100.00;99443.38;2097547;28;21004;-78
2021/08/14 02:57:45;;;;;;;31.53;28.10;;;;;;;17.18;100.00;99451.25;2096661;28;20768;-78
2021/08/14 02:58:46;;;;;;;30.67;27.43;;;;;;;17.23;100.00;99451.06;2088852;28;20450;-77
2021/08/14 02:59:48;;;;;;;29.97;27.10;;;;;;;17.24;100.00;99447.25;2096855;28;20348;-78
2021/08/14 03:00:50;;;;;;;31.23;28.03;;;;;;;17.23;100.00;99440.28;2096619;28;20499;-78
2021/08/14 03:01:52;;;;;;;31.83;28.43;;;;;;;17.25;100.00;99442.66;2097017;28;20962;-78
2021/08/14 03:02:52;;;;;;;29.50;26.40;;;;;;;17.26;100.00;99441.53;2096418;28;20544;-77
2021/08/14 03:03:54;;;;;;;30.90;27.60;;;;;;;17.25;100.00;99439.94;2082338;28;20470;-77
2021/08/14 03:04:54;;;;;;;31.13;28.37;;;;;;;17.24;100.00;99436.47;2095028;28;20643;-78
2021/08/14 03:05:56;;;;;;;32.60;29.07;;;;;;;17.26;100.00;99440.72;2096796;28;20456;-77
2021/08/14 03:06:57;;;;;;;30.50;27.23;;;;;;;17.22;100.00;99433.31;2097951;28;20644;-77
2021/08/14 03:07:58;;;;;;;31.77;28.17;;;;;;;17.27;100.00;99445.78;2097666;28;20437;-78
2021/08/14 03:08:59;;;;;;;30.20;27.30;;;;;;;17.31;100.00;99440.53;2097383;28;20268;-77
2021/08/14 03:10:01;;;;;;;31.87;28.30;;;;;;;17.36;100.00;99446.50;2097940;28;20433;-77
2021/08/14 03:11:02;;;;;;;34.43;27.90;;;;;;;17.35;100.00;99441.44;2096435;28;20245;-77
2021/08/14 03:12:03;;;;;;;31.30;28.10;;;;;;;17.43;100.00;99438.66;2097090;28;20460;-78
2021/08/14 03:13:05;;;;;;;30.13;26.60;;;;;;;17.46;100.00;99437.22;2097475;28;20522;-77
2021/08/14 03:14:07;;;;;;;29.00;26.10;;;;;;;17.39;100.00;99434.28;2097371;28;20459;-77
2021/08/14 03:15:10;;;;;;;29.83;26.77;;;;;;;17.32;100.00;99432.13;2097495;28;20993;-76
2021/08/14 03:16:12;;;;;;;30.67;27.53;;;;;;;17.31;100.00;99435.16;2097335;28;20480;-78
2021/08/14 03:17:14;;;;;;;30.87;27.43;;;;;;;17.31;100.00;99435.16;2097816;28;20954;-78
2021/08/14 03:18:15;;;;;;;30.83;27.87;;;;;;;17.28;100.00;99431.19;2096511;28;20440;-77
2021/08/14 03:19:16;;;;;;;29.80;26.83;;;;;;;17.26;100.00;99429.94;2096512;28;20469;-77
2021/08/14 03:20:17;;;;;;;30.07;26.83;;;;;;;17.27;100.00;99439.59;2096776;28;20440;-77
2021/08/14 03:21:19;;;;;;;30.20;27.20;;;;;;;17.25;100.00;99434.56;2096630;28;20322;-78
2021/08/14 03:22:20;;;;;;;31.47;28.23;;;;;;;17.24;100.00;99436.47;2096970;28;20484;-78
2021/08/14 03:23:21;;;;;;;33.60;28.67;;;;;;;17.22;100.00;99432.53;2096623;28;20452;-78
2021/08/14 03:24:23;;;;;;;31.00;28.00;;;;;;;17.22;100.00;99430.63;2096951;28;20234;-76
2021/08/14 03:25:25;;;;;;;30.03;27.23;;;;;;;17.21;100.00;99439.84;2097467;28;20509;-78
2021/08/14 03:26:26;;;;;;;29.67;26.83;;;;;;;17.20;100.00;99426.66;2097261;28;20540;-78
2021/08/14 03:27:27;;;;;;;29.90;27.10;;;;;;;17.21;100.00;99433.66;2097215;28;20547;-77
2021/08/14 03:28:29;;;;;;;31.57;28.20;;;;;;;17.21;100.00;99433.66;2096394;28;20444;-78
2021/08/14 03:29:29;;;;;;;30.50;27.40;;;;;;;17.21;100.00;99434.44;2096460;28;20473;-77
2021/08/14 03:30:32;;;;;;;31.23;28.23;;;;;;;17.21;100.00;99436.34;2096583;28;20447;-78
2021/08/14 03:31:33;;;;;;;31.10;27.87;;;;;;;17.21;100.00;99439.03;2088242;28;20238;-78
2021/08/14 03:32:35;;;;;;;31.83;27.70;;;;;;;17.20;100.00;99440.13;2096643;28;20460;-78
2021/08/14 03:33:36;;;;;;;31.40;28.27;;;;;;;17.19;100.00;99447.44;2096093;28;20699;-78
2021/08/14 03:34:37;;;;;;;31.93;28.57;;;;;;;17.23;100.00;99450.28;2093680;28;20517;-77
2021/08/14 03:35:38;;;;;;;29.90;26.83;;;;;;;17.21;100.00;99455.22;2088509;28;20457;-77
2021/08/14 03:36:40;;;;;;;31.83;28.47;;;;;;;17.24;100.00;99460.72;2088038;28;20226;-77
2021/08/14 03:37:40;;;;;;;34.77;28.33;;;;;;;17.29;100.00;99470.53;2096276;28;20888;-77
2021/08/14 03:38:42;;;;;;;30.53;27.50;;;;;;;17.31;100.00;99476.38;2097322;28;20490;-78
2021/08/14 03:39:43;;;;;;;35.23;28.90;;;;;;;17.35;100.00;99481.91;2097009;28;20260;-77
2021/08/14 03:40:44;;;;;;;30.67;27.57;;;;;;;17.33;100.00;99481.44;2095882;28;20448;-78
2021/08/14 03:41:45;;;;;;;31.50;28.50;;;;;;;17.34;100.00;99485.72;2096458;28;20306;-78
2021/08/14 03:42:47;;;;;;;32.30;28.60;;;;;;;17.39;100.00;99486.31;2097145;28;20455;-77
2021/08/14 03:43:47;;;;;;;33.63;27.33;;;;;;;17.34;100.00;99475.72;2097376;28;20310;-77
2021/08/14 03:44:49;;;;;;;30.87;27.53;;;;;;;17.34;100.00;99478.41;2097272;28;20449;-78
2021/08/14 03:45:53;;;;;;;29.37;26.60;;;;;;;17.33;100.00;99470.66;2096512;28;20269;-77
2021/08/14 03:46:55;;;;;;;30.70;27.43;;;;;;;17.40;100.00;99469.00;2082018;28;20474;-78
2021/08/14 03:47:56;;;;;;;32.73;27.87;;;;;;;17.46;100.00;99481.19;2096546;28;20948;-77
2021/08/14 03:48:57;;;;;;;32.23;28.70;;;;;;;17.49;100.00;99477.03;2097445;28;20503;-77
2021/08/14 03:49:59;;;;;;;34.40;27.33;;;;;;;17.55;100.00;99472.19;2097038;28;20445;-78
2021/08/14 03:50:59;;;;;;;30.53;27.30;;;;;;;17.59;100.00;99475.81;2097077;28;20244;-77
2021/08/14 03:52:01;;;;;;;30.67;27.53;;;;;;;17.60;100.00;99467.41;2097465;28;20448;-78
2021/08/14 03:53:02;;;;;;;30.10;26.80;;;;;;;17.62;100.00;99467.06;2095893;28;20324;-78
2021/08/14 03:54:03;;;;;;;30.23;27.30;;;;;;;17.63;100.00;99463.22;2096642;28;20501;-77
2021/08/14 03:55:06;;;;;;;29.33;26.37;;;;;;;17.65;100.00;99458.31;2097124;28;20502;-78
2021/08/14 03:56:07;;;;;;;28.80;26.03;;;;;;;17.64;100.00;99459.44;2096830;28;20584;-76
2021/08/14 03:57:08;;;;;;;29.80;26.77;;;;;;;17.69;100.00;99453.81;2096759;28;20440;-76
2021/08/14 03:58:09;;;;;;;29.03;26.10;;;;;;;17.70;100.00;99450.81;2096279;28;20255;-77
2021/08/14 03:59:10;;;;;;;28.73;26.03;;;;;;;17.75;100.00;99449.81;2097473;28;20452;-77
2021/08/14 04:00:13;;;;;;;28.83;26.07;;;;;;;17.77;100.00;99450.28;2096999;28;20711;-78
2021/08/14 04:01:15;;;;;;;30.63;26.90;;;;;;;17.73;100.00;99449.38;2096910;28;20948;-77
2021/08/14 04:02:16;;;;;;;29.50;26.47;;;;;;;17.68;100.00;99449.53;2097421;28;20512;-78
2021/08/14 04:03:18;;;;;;;29.60;26.67;;;;;;;17.63;100.00;99447.81;2096555;28;20539;-78
2021/08/14 04:04:18;;;;;;;30.40;26.47;;;;;;;17.72;100.00;99445.06;2096174;28;20547;-77
2021/08/14 04:05:20;;;;;;;30.00;26.87;;;;;;;17.77;100.00;99442.16;2097255;28;20462;-78
2021/08/14 04:06:20;;;;;;;29.83;26.83;;;;;;;17.80;100.00;99441.50;2096449;28;20226;-77
2021/08/14 04:07:22;;;;;;;29.60;26.47;;;;;;;17.87;100.00;99444.44;2096911;28;20448;-77
2021/08/14 04:08:23;;;;;;;31.47;26.70;;;;;;;17.91;100.00;99442.66;2095847;28;20225;-78
2021/08/14 04:09:24;;;;;;;28.73;25.97;;;;;;;17.89;100.00;99434.09;2096957;28;20449;-77
2021/08/14 04:10:25;;;;;;;30.40;27.10;;;;;;;17.91;100.00;99442.66;2096133;28;20270;-77
2021/08/14 04:11:27;;;;;;;29.50;26.33;;;;;;;17.87;100.00;99436.34;2096268;28;20460;-77
2021/08/14 04:12:27;;;;;;;30.03;26.40;;;;;;;17.84;100.00;99441.63;2097218;28;20309;-77
2021/08/14 04:13:29;;;;;;;29.47;26.67;;;;;;;17.82;100.00;99436.56;2096260;28;20445;-77
2021/08/14 04:14:30;;;;;;;29.30;26.50;;;;;;;17.77;100.00;99432.16;2088098;28;20673;-77
2021/08/14 04:15:31;;;;;;;29.73;26.73;;;;;;;17.78;100.00;99441.03;2096743;28;20606;-77
2021/08/14 04:16:34;;;;;;;29.60;26.73;;;;;;;17.79;100.00;99434.53;2097030;28;20444;-77
2021/08/14 04:17:34;;;;;;;28.97;25.97;;;;;;;17.88;100.00;99435.22;2096493;28;20237;-77
2021/08/14 04:18:36;;;;;;;30.03;27.07;;;;;;;17.86;100.00;99442.88;2096341;28;20453;-77
2021/08/14 04:19:36;;;;;;;29.80;27.00;;;;;;;17.84;100.00;99436.22;2095878;28;20250;-75
2021/08/14 04:20:38;;;;;;;29.40;26.37;;;;;;;17.83;100.00;99440.84;2088601;28;20966;-75
2021/08/14 04:21:39;;;;;;;29.13;26.37;;;;;;;17.84;100.00;99445.13;2096066;28;20305;-76
2021/08/14 04:22:40;;;;;;;29.83;26.97;;;;;;;17.82;100.00;99450.06;2087786;28;20464;-76
2021/08/14 04:23:41;;;;;;;29.07;26.33;;;;;;;17.79;100.00;99440.69;2096409;28;20250;-77
2021/08/14 04:24:43;;;;;;;31.17;28.00;;;;;;;17.79;100.00;99442.63;2097079;28;20441;-76
2021/08/14 04:25:43;;;;;;;29.73;26.73;;;;;;;17.77;100.00;99450.28;2097299;28;20224;-77
2021/08/14 04:26:45;;;;;;;28.80;25.83;;;;;;;17.78;100.00;99449.16;2096968;28;20445;-77
2021/08/14 04:27:45;;;;;;;29.37;26.70;;;;;;;17.79;100.00;99448.00;2096883;28;20351;-77
2021/08/14 04:28:47;;;;;;;29.43;26.50;;;;;;;17.85;100.00;99435.88;2097271;28;20449;-77
2021/08/14 04:29:48;;;;;;;30.07;27.10;;;;;;;17.86;100.00;99444.78;2096870;28;20218;-77
2021/08/14 04:30:49;;;;;;;35.90;26.97;;;;;;;17.86;100.00;99444.78;2096326;28;20952;-77
2021/08/14 04:31:52;;;;;;;30.03;27.27;;;;;;;17.87;100.00;99447.13;2088037;28;20238;-77
2021/08/14 04:32:53;;;;;;;30.40;27.17;;;;;;;17.87;100.00;99446.34;2087502;28;20449;-76
2021/08/14 04:33:54;;;;;;;29.07;26.03;;;;;;;17.88;100.00;99459.50;2096507;28;20495;-77
2021/08/14 04:34:55;;;;;;;30.80;27.63;;;;;;;17.91;100.00;99464.25;2096851;28;20746;-77
2021/08/14 04:35:57;;;;;;;29.33;26.50;;;;;;;17.88;100.00;99467.59;2097203;28;20868;-77
2021/08/14 04:36:57;;;;;;;30.50;27.30;;;;;;;17.86;100.00;99461.75;2096907;28;20324;-77
2021/08/14 04:37:59;;;;;;;30.57;26.87;;;;;;;17.91;100.00;99458.06;2096063;28;20472;-76
2021/08/14 04:38:59;;;;;;;28.93;26.23;;;;;;;17.93;100.00;99458.50;2096161;28;20226;-76